sensor_id;sensor_type;location;lat;lon;timestamp;P1;durP1;ratioP1;P2;durP2;ratioP2
43809;SDS011;29440;48.208;11.162;2024-01-06T00:01:28;12.68;;;7.13;;
43809;SDS011;29440;48.208;11.162;2024-01-06T00:03:54;17.92;;;7.50;;
43809;SDS011;29440;48.208;11.162;2024-01-06T00:06:20;13.88;;;7.68;;
43809;SDS011;29440;48.208;11.162;2024-01-06T00:08:46;14.02;;;7.05;;
43809;SDS011;29440;48.208;11.162;2024-01-06T00:11:18;11.40;;;6.97;;
43809;SDS011;29440;48.208;11.162;2024-01-06T00:13:47;11.43;;;7.10;;
43809;SDS011;29440;48.208;11.162;2024-01-06T00:16:13;24.13;;;9.73;;
43809;SDS011;29440;48.208;11.162;2024-01-06T00:18:41;33.15;;;12.13;;
43809;SDS011;29440;48.208;11.162;2024-01-06T00:21:07;28.13;;;10.23;;
43809;SDS011;29440;48.208;11.162;2024-01-06T00:23:33;46.03;;;13.20;;
43809;SDS011;29440;48.208;11.162;2024-01-06T00:25:58;37.85;;;13.32;;
43809;SDS011;29440;48.208;11.162;2024-01-06T00:28:24;39.42;;;11.82;;
43809;SDS011;29440;48.208;11.162;2024-01-06T00:30:49;30.13;;;11.20;;
43809;SDS011;29440;48.208;11.162;2024-01-06T00:33:15;30.85;;;11.20;;
43809;SDS011;29440;48.208;11.162;2024-01-06T00:35:41;40.42;;;13.45;;
43809;SDS011;29440;48.208;11.162;2024-01-06T00:38:06;27.15;;;10.90;;
43809;SDS011;29440;48.208;11.162;2024-01-06T00:40:32;22.83;;;9.57;;
43809;SDS011;29440;48.208;11.162;2024-01-06T00:42:57;18.85;;;8.80;;
43809;SDS011;29440;48.208;11.162;2024-01-06T00:45:23;17.77;;;9.10;;
43809;SDS011;29440;48.208;11.162;2024-01-06T00:47:49;14.88;;;8.38;;
43809;SDS011;29440;48.208;11.162;2024-01-06T00:50:14;11.40;;;7.95;;
43809;SDS011;29440;48.208;11.162;2024-01-06T00:52:41;15.65;;;8.30;;
43809;SDS011;29440;48.208;11.162;2024-01-06T00:55:06;14.93;;;7.53;;
43809;SDS011;29440;48.208;11.162;2024-01-06T00:57:32;11.80;;;7.38;;
43809;SDS011;29440;48.208;11.162;2024-01-06T00:59:58;11.40;;;7.65;;
43809;SDS011;29440;48.208;11.162;2024-01-06T01:02:23;14.63;;;7.75;;
43809;SDS011;29440;48.208;11.162;2024-01-06T01:04:49;12.00;;;7.20;;
43809;SDS011;29440;48.208;11.162;2024-01-06T01:07:15;11.35;;;7.55;;
43809;SDS011;29440;48.208;11.162;2024-01-06T01:09:41;11.43;;;7.45;;
43809;SDS011;29440;48.208;11.162;2024-01-06T01:12:06;15.05;;;7.22;;
43809;SDS011;29440;48.208;11.162;2024-01-06T01:14:32;13.02;;;6.80;;
43809;SDS011;29440;48.208;11.162;2024-01-06T01:16:57;12.25;;;6.93;;
43809;SDS011;29440;48.208;11.162;2024-01-06T01:19:23;11.07;;;6.50;;
43809;SDS011;29440;48.208;11.162;2024-01-06T01:21:48;10.73;;;7.35;;
43809;SDS011;29440;48.208;11.162;2024-01-06T01:24:14;11.85;;;6.70;;
43809;SDS011;29440;48.208;11.162;2024-01-06T01:26:39;12.18;;;6.82;;
43809;SDS011;29440;48.208;11.162;2024-01-06T01:29:05;12.68;;;7.43;;
43809;SDS011;29440;48.208;11.162;2024-01-06T01:31:30;11.05;;;7.18;;
43809;SDS011;29440;48.208;11.162;2024-01-06T01:33:56;11.95;;;7.13;;
43809;SDS011;29440;48.208;11.162;2024-01-06T01:36:21;12.63;;;7.10;;
43809;SDS011;29440;48.208;11.162;2024-01-06T01:38:47;12.30;;;7.03;;
43809;SDS011;29440;48.208;11.162;2024-01-06T01:41:12;12.27;;;6.47;;
43809;SDS011;29440;48.208;11.162;2024-01-06T01:43:38;11.18;;;6.47;;
43809;SDS011;29440;48.208;11.162;2024-01-06T01:46:03;11.05;;;6.85;;
43809;SDS011;29440;48.208;11.162;2024-01-06T01:48:29;10.70;;;6.45;;
43809;SDS011;29440;48.208;11.162;2024-01-06T01:50:56;11.63;;;6.90;;
43809;SDS011;29440;48.208;11.162;2024-01-06T01:53:22;11.20;;;6.95;;
43809;SDS011;29440;48.208;11.162;2024-01-06T01:55:49;9.63;;;6.20;;
43809;SDS011;29440;48.208;11.162;2024-01-06T01:58:15;10.50;;;6.82;;
43809;SDS011;29440;48.208;11.162;2024-01-06T02:00:41;10.73;;;6.57;;
43809;SDS011;29440;48.208;11.162;2024-01-06T02:03:07;9.73;;;6.88;;
43809;SDS011;29440;48.208;11.162;2024-01-06T02:05:34;11.60;;;6.63;;
43809;SDS011;29440;48.208;11.162;2024-01-06T02:08:00;12.75;;;6.82;;
43809;SDS011;29440;48.208;11.162;2024-01-06T02:10:25;11.20;;;6.60;;
43809;SDS011;29440;48.208;11.162;2024-01-06T02:12:51;11.32;;;6.68;;
43809;SDS011;29440;48.208;11.162;2024-01-06T02:15:17;10.82;;;6.20;;
43809;SDS011;29440;48.208;11.162;2024-01-06T02:17:43;9.02;;;5.75;;
43809;SDS011;29440;48.208;11.162;2024-01-06T02:20:09;8.88;;;5.65;;
43809;SDS011;29440;48.208;11.162;2024-01-06T02:22:37;10.00;;;6.18;;
43809;SDS011;29440;48.208;11.162;2024-01-06T02:25:03;8.70;;;5.50;;
43809;SDS011;29440;48.208;11.162;2024-01-06T02:27:37;9.65;;;5.90;;
43809;SDS011;29440;48.208;11.162;2024-01-06T02:30:06;11.57;;;6.45;;
43809;SDS011;29440;48.208;11.162;2024-01-06T02:32:32;11.63;;;6.97;;
43809;SDS011;29440;48.208;11.162;2024-01-06T02:34:57;11.23;;;6.78;;
43809;SDS011;29440;48.208;11.162;2024-01-06T02:37:23;12.15;;;6.60;;
43809;SDS011;29440;48.208;11.162;2024-01-06T02:39:48;11.05;;;6.55;;
43809;SDS011;29440;48.208;11.162;2024-01-06T02:42:14;10.43;;;5.82;;
43809;SDS011;29440;48.208;11.162;2024-01-06T02:44:40;11.63;;;6.72;;
43809;SDS011;29440;48.208;11.162;2024-01-06T02:47:05;13.98;;;6.88;;
43809;SDS011;29440;48.208;11.162;2024-01-06T02:49:31;11.65;;;6.45;;
43809;SDS011;29440;48.208;11.162;2024-01-06T02:51:56;13.15;;;6.60;;
43809;SDS011;29440;48.208;11.162;2024-01-06T02:54:22;9.63;;;5.90;;
43809;SDS011;29440;48.208;11.162;2024-01-06T02:56:47;9.65;;;5.50;;
43809;SDS011;29440;48.208;11.162;2024-01-06T02:59:13;8.65;;;5.30;;
43809;SDS011;29440;48.208;11.162;2024-01-06T03:01:38;8.32;;;5.13;;
43809;SDS011;29440;48.208;11.162;2024-01-06T03:04:04;9.43;;;5.22;;
43809;SDS011;29440;48.208;11.162;2024-01-06T03:06:30;9.32;;;5.38;;
43809;SDS011;29440;48.208;11.162;2024-01-06T03:08:55;6.57;;;3.58;;
43809;SDS011;29440;48.208;11.162;2024-01-06T03:11:21;6.63;;;3.80;;
43809;SDS011;29440;48.208;11.162;2024-01-06T03:13:46;7.10;;;4.32;;
43809;SDS011;29440;48.208;11.162;2024-01-06T03:16:12;8.45;;;3.78;;
43809;SDS011;29440;48.208;11.162;2024-01-06T03:18:38;7.05;;;4.07;;
43809;SDS011;29440;48.208;11.162;2024-01-06T03:21:03;6.57;;;3.67;;
43809;SDS011;29440;48.208;11.162;2024-01-06T03:23:29;6.35;;;3.30;;
43809;SDS011;29440;48.208;11.162;2024-01-06T03:25:54;4.88;;;2.58;;
43809;SDS011;29440;48.208;11.162;2024-01-06T03:28:20;4.53;;;2.20;;
43809;SDS011;29440;48.208;11.162;2024-01-06T03:30:45;3.58;;;1.85;;
43809;SDS011;29440;48.208;11.162;2024-01-06T03:33:11;1.85;;;1.10;;
43809;SDS011;29440;48.208;11.162;2024-01-06T03:35:37;1.27;;;0.80;;
43809;SDS011;29440;48.208;11.162;2024-01-06T03:38:02;2.42;;;0.63;;
43809;SDS011;29440;48.208;11.162;2024-01-06T03:40:28;1.55;;;0.60;;
43809;SDS011;29440;48.208;11.162;2024-01-06T03:42:54;1.67;;;0.70;;
43809;SDS011;29440;48.208;11.162;2024-01-06T03:45:19;2.83;;;1.13;;
43809;SDS011;29440;48.208;11.162;2024-01-06T03:47:45;3.00;;;1.58;;
43809;SDS011;29440;48.208;11.162;2024-01-06T03:50:11;2.13;;;1.40;;
43809;SDS011;29440;48.208;11.162;2024-01-06T03:52:37;3.10;;;1.60;;
43809;SDS011;29440;48.208;11.162;2024-01-06T03:55:03;2.92;;;1.75;;
43809;SDS011;29440;48.208;11.162;2024-01-06T03:57:30;3.15;;;1.40;;
43809;SDS011;29440;48.208;11.162;2024-01-06T03:59:55;2.83;;;1.23;;
43809;SDS011;29440;48.208;11.162;2024-01-06T04:02:21;1.92;;;0.90;;
43809;SDS011;29440;48.208;11.162;2024-01-06T04:04:46;1.13;;;0.60;;
43809;SDS011;29440;48.208;11.162;2024-01-06T04:07:12;0.90;;;0.60;;
43809;SDS011;29440;48.208;11.162;2024-01-06T04:09:37;1.40;;;0.80;;
43809;SDS011;29440;48.208;11.162;2024-01-06T04:12:06;0.68;;;0.40;;
43809;SDS011;29440;48.208;11.162;2024-01-06T04:14:32;0.30;;;0.20;;
43809;SDS011;29440;48.208;11.162;2024-01-06T04:16:57;0.28;;;0.10;;
43809;SDS011;29440;48.208;11.162;2024-01-06T04:19:23;0.50;;;0.13;;
43809;SDS011;29440;48.208;11.162;2024-01-06T04:21:49;0.90;;;0.20;;
43809;SDS011;29440;48.208;11.162;2024-01-06T04:24:14;0.20;;;0.20;;
43809;SDS011;29440;48.208;11.162;2024-01-06T04:26:40;0.10;;;0.10;;
43809;SDS011;29440;48.208;11.162;2024-01-06T04:29:05;0.13;;;0.10;;
43809;SDS011;29440;48.208;11.162;2024-01-06T04:31:31;0.10;;;0.10;;
43809;SDS011;29440;48.208;11.162;2024-01-06T04:33:56;0.10;;;0.10;;
43809;SDS011;29440;48.208;11.162;2024-01-06T04:36:22;0.20;;;0.20;;
43809;SDS011;29440;48.208;11.162;2024-01-06T04:38:47;0.20;;;0.20;;
43809;SDS011;29440;48.208;11.162;2024-01-06T04:41:13;0.10;;;0.10;;
43809;SDS011;29440;48.208;11.162;2024-01-06T04:43:39;0.25;;;0.20;;
43809;SDS011;29440;48.208;11.162;2024-01-06T04:46:05;0.10;;;0.10;;
43809;SDS011;29440;48.208;11.162;2024-01-06T04:48:30;0.47;;;0.13;;
43809;SDS011;29440;48.208;11.162;2024-01-06T04:50:56;0.40;;;0.20;;
43809;SDS011;29440;48.208;11.162;2024-01-06T04:53:21;0.30;;;0.20;;
43809;SDS011;29440;48.208;11.162;2024-01-06T04:55:47;0.25;;;0.20;;
43809;SDS011;29440;48.208;11.162;2024-01-06T04:58:12;0.20;;;0.20;;
43809;SDS011;29440;48.208;11.162;2024-01-06T05:00:38;0.52;;;0.22;;
43809;SDS011;29440;48.208;11.162;2024-01-06T05:03:03;1.80;;;0.20;;
43809;SDS011;29440;48.208;11.162;2024-01-06T05:05:29;0.55;;;0.25;;
43809;SDS011;29440;48.208;11.162;2024-01-06T05:07:54;1.05;;;0.50;;
43809;SDS011;29440;48.208;11.162;2024-01-06T05:10:20;1.60;;;0.80;;
43809;SDS011;29440;48.208;11.162;2024-01-06T05:12:45;3.97;;;1.55;;
43809;SDS011;29440;48.208;11.162;2024-01-06T05:15:11;5.25;;;1.48;;
43809;SDS011;29440;48.208;11.162;2024-01-06T05:17:37;2.85;;;1.17;;
43809;SDS011;29440;48.208;11.162;2024-01-06T05:20:02;3.72;;;1.20;;
43809;SDS011;29440;48.208;11.162;2024-01-06T05:22:29;2.95;;;1.40;;
43809;SDS011;29440;48.208;11.162;2024-01-06T05:24:55;3.72;;;1.33;;
43809;SDS011;29440;48.208;11.162;2024-01-06T05:27:21;3.33;;;1.08;;
43809;SDS011;29440;48.208;11.162;2024-01-06T05:29:46;4.10;;;1.40;;
43809;SDS011;29440;48.208;11.162;2024-01-06T05:32:14;3.88;;;1.88;;
43809;SDS011;29440;48.208;11.162;2024-01-06T05:34:40;2.60;;;1.40;;
43809;SDS011;29440;48.208;11.162;2024-01-06T05:37:06;3.40;;;1.75;;
43809;SDS011;29440;48.208;11.162;2024-01-06T05:39:31;3.35;;;1.52;;
43809;SDS011;29440;48.208;11.162;2024-01-06T05:41:57;3.05;;;1.48;;
43809;SDS011;29440;48.208;11.162;2024-01-06T05:44:22;2.05;;;1.33;;
43809;SDS011;29440;48.208;11.162;2024-01-06T05:46:48;3.75;;;1.30;;
43809;SDS011;29440;48.208;11.162;2024-01-06T05:49:14;3.03;;;1.50;;
43809;SDS011;29440;48.208;11.162;2024-01-06T05:51:43;3.88;;;1.30;;
43809;SDS011;29440;48.208;11.162;2024-01-06T05:54:10;3.17;;;1.75;;
43809;SDS011;29440;48.208;11.162;2024-01-06T05:56:35;3.33;;;1.65;;
43809;SDS011;29440;48.208;11.162;2024-01-06T05:59:01;5.25;;;2.55;;
43809;SDS011;29440;48.208;11.162;2024-01-06T06:01:27;4.47;;;1.83;;
43809;SDS011;29440;48.208;11.162;2024-01-06T06:03:53;6.65;;;2.05;;
43809;SDS011;29440;48.208;11.162;2024-01-06T06:06:19;5.07;;;2.10;;
43809;SDS011;29440;48.208;11.162;2024-01-06T06:08:45;4.63;;;2.05;;
43809;SDS011;29440;48.208;11.162;2024-01-06T06:11:11;2.13;;;1.10;;
43809;SDS011;29440;48.208;11.162;2024-01-06T06:13:40;2.70;;;1.55;;
43809;SDS011;29440;48.208;11.162;2024-01-06T06:16:06;2.30;;;1.50;;
43809;SDS011;29440;48.208;11.162;2024-01-06T06:18:34;3.65;;;1.63;;
43809;SDS011;29440;48.208;11.162;2024-01-06T06:21:00;5.85;;;2.00;;
43809;SDS011;29440;48.208;11.162;2024-01-06T06:23:29;3.67;;;1.20;;
43809;SDS011;29440;48.208;11.162;2024-01-06T06:25:55;2.80;;;1.50;;
43809;SDS011;29440;48.208;11.162;2024-01-06T06:28:20;3.58;;;1.50;;
43809;SDS011;29440;48.208;11.162;2024-01-06T06:30:46;2.30;;;1.60;;
43809;SDS011;29440;48.208;11.162;2024-01-06T06:33:12;4.65;;;1.55;;
43809;SDS011;29440;48.208;11.162;2024-01-06T06:35:37;3.38;;;1.70;;
43809;SDS011;29440;48.208;11.162;2024-01-06T06:38:03;3.35;;;1.50;;
43809;SDS011;29440;48.208;11.162;2024-01-06T06:40:28;7.78;;;1.60;;
43809;SDS011;29440;48.208;11.162;2024-01-06T06:42:55;4.43;;;1.67;;
43809;SDS011;29440;48.208;11.162;2024-01-06T06:45:20;5.50;;;1.70;;
43809;SDS011;29440;48.208;11.162;2024-01-06T06:47:48;6.03;;;1.63;;
43809;SDS011;29440;48.208;11.162;2024-01-06T06:50:15;5.97;;;1.88;;
43809;SDS011;29440;48.208;11.162;2024-01-06T06:52:41;6.43;;;1.98;;
43809;SDS011;29440;48.208;11.162;2024-01-06T06:55:07;6.60;;;2.20;;
43809;SDS011;29440;48.208;11.162;2024-01-06T06:57:33;4.80;;;2.58;;
43809;SDS011;29440;48.208;11.162;2024-01-06T06:59:58;6.47;;;2.47;;
43809;SDS011;29440;48.208;11.162;2024-01-06T07:02:25;7.25;;;2.40;;
43809;SDS011;29440;48.208;11.162;2024-01-06T07:04:51;4.45;;;1.95;;
43809;SDS011;29440;48.208;11.162;2024-01-06T07:07:18;4.72;;;1.88;;
43809;SDS011;29440;48.208;11.162;2024-01-06T07:09:44;4.57;;;2.00;;
43809;SDS011;29440;48.208;11.162;2024-01-06T07:12:09;6.30;;;2.58;;
43809;SDS011;29440;48.208;11.162;2024-01-06T07:14:35;4.65;;;2.65;;
43809;SDS011;29440;48.208;11.162;2024-01-06T07:17:02;4.07;;;2.40;;
43809;SDS011;29440;48.208;11.162;2024-01-06T07:19:28;6.03;;;2.20;;
43809;SDS011;29440;48.208;11.162;2024-01-06T07:21:56;4.32;;;2.17;;
43809;SDS011;29440;48.208;11.162;2024-01-06T07:24:21;3.63;;;1.73;;
43809;SDS011;29440;48.208;11.162;2024-01-06T07:26:47;4.65;;;1.67;;
43809;SDS011;29440;48.208;11.162;2024-01-06T07:29:12;5.47;;;2.10;;
43809;SDS011;29440;48.208;11.162;2024-01-06T07:31:38;4.28;;;1.77;;
43809;SDS011;29440;48.208;11.162;2024-01-06T07:34:03;4.57;;;1.75;;
43809;SDS011;29440;48.208;11.162;2024-01-06T07:36:29;5.22;;;1.95;;
43809;SDS011;29440;48.208;11.162;2024-01-06T07:38:55;5.35;;;1.92;;
43809;SDS011;29440;48.208;11.162;2024-01-06T07:41:21;4.70;;;1.63;;
43809;SDS011;29440;48.208;11.162;2024-01-06T07:43:47;4.50;;;1.50;;
43809;SDS011;29440;48.208;11.162;2024-01-06T07:46:12;3.00;;;1.52;;
43809;SDS011;29440;48.208;11.162;2024-01-06T07:48:38;5.25;;;2.28;;
43809;SDS011;29440;48.208;11.162;2024-01-06T07:51:04;4.93;;;1.70;;
43809;SDS011;29440;48.208;11.162;2024-01-06T07:53:30;4.00;;;1.95;;
43809;SDS011;29440;48.208;11.162;2024-01-06T07:55:55;12.50;;;3.08;;
43809;SDS011;29440;48.208;11.162;2024-01-06T07:58:21;17.05;;;4.53;;
43809;SDS011;29440;48.208;11.162;2024-01-06T08:00:46;9.00;;;2.95;;
43809;SDS011;29440;48.208;11.162;2024-01-06T08:03:12;11.88;;;4.18;;
43809;SDS011;29440;48.208;11.162;2024-01-06T08:05:38;10.82;;;4.80;;
43809;SDS011;29440;48.208;11.162;2024-01-06T08:08:04;15.70;;;5.90;;
43809;SDS011;29440;48.208;11.162;2024-01-06T08:10:30;12.18;;;4.70;;
43809;SDS011;29440;48.208;11.162;2024-01-06T08:12:56;8.88;;;4.32;;
43809;SDS011;29440;48.208;11.162;2024-01-06T08:15:22;8.73;;;3.53;;
43809;SDS011;29440;48.208;11.162;2024-01-06T08:17:47;8.10;;;3.63;;
43809;SDS011;29440;48.208;11.162;2024-01-06T08:20:13;8.73;;;3.50;;
43809;SDS011;29440;48.208;11.162;2024-01-06T08:22:38;14.05;;;5.45;;
43809;SDS011;29440;48.208;11.162;2024-01-06T08:25:04;11.45;;;5.13;;
43809;SDS011;29440;48.208;11.162;2024-01-06T08:27:33;9.43;;;4.03;;
43809;SDS011;29440;48.208;11.162;2024-01-06T08:30:00;6.78;;;2.75;;
43809;SDS011;29440;48.208;11.162;2024-01-06T08:32:25;9.35;;;5.10;;
43809;SDS011;29440;48.208;11.162;2024-01-06T08:34:51;7.90;;;3.20;;
43809;SDS011;29440;48.208;11.162;2024-01-06T08:37:17;7.00;;;3.13;;
43809;SDS011;29440;48.208;11.162;2024-01-06T08:39:42;7.30;;;2.90;;
43809;SDS011;29440;48.208;11.162;2024-01-06T08:42:08;11.70;;;4.20;;
43809;SDS011;29440;48.208;11.162;2024-01-06T08:44:33;12.13;;;4.13;;
43809;SDS011;29440;48.208;11.162;2024-01-06T08:46:59;10.57;;;4.45;;
43809;SDS011;29440;48.208;11.162;2024-01-06T08:49:25;10.85;;;4.35;;
43809;SDS011;29440;48.208;11.162;2024-01-06T08:51:50;9.70;;;3.97;;
43809;SDS011;29440;48.208;11.162;2024-01-06T08:54:16;8.65;;;3.72;;
43809;SDS011;29440;48.208;11.162;2024-01-06T08:56:41;6.60;;;3.17;;
43809;SDS011;29440;48.208;11.162;2024-01-06T08:59:07;5.85;;;3.33;;
43809;SDS011;29440;48.208;11.162;2024-01-06T09:01:32;7.88;;;3.50;;
43809;SDS011;29440;48.208;11.162;2024-01-06T09:04:01;8.00;;;3.60;;
43809;SDS011;29440;48.208;11.162;2024-01-06T09:06:26;6.63;;;3.17;;
43809;SDS011;29440;48.208;11.162;2024-01-06T09:08:52;7.13;;;3.30;;
43809;SDS011;29440;48.208;11.162;2024-01-06T09:11:18;6.28;;;3.08;;
43809;SDS011;29440;48.208;11.162;2024-01-06T09:13:43;8.25;;;3.08;;
43809;SDS011;29440;48.208;11.162;2024-01-06T09:16:09;5.57;;;2.80;;
43809;SDS011;29440;48.208;11.162;2024-01-06T09:18:35;7.90;;;3.05;;
43809;SDS011;29440;48.208;11.162;2024-01-06T09:21:01;5.72;;;2.85;;
43809;SDS011;29440;48.208;11.162;2024-01-06T09:23:28;3.58;;;2.05;;
43809;SDS011;29440;48.208;11.162;2024-01-06T09:25:53;4.70;;;2.13;;
43809;SDS011;29440;48.208;11.162;2024-01-06T09:28:19;5.82;;;2.33;;
43809;SDS011;29440;48.208;11.162;2024-01-06T09:30:46;7.25;;;2.42;;
43809;SDS011;29440;48.208;11.162;2024-01-06T09:33:11;5.50;;;2.17;;
43809;SDS011;29440;48.208;11.162;2024-01-06T09:35:40;6.45;;;2.40;;
43809;SDS011;29440;48.208;11.162;2024-01-06T09:38:06;6.50;;;2.60;;
43809;SDS011;29440;48.208;11.162;2024-01-06T09:40:32;4.65;;;2.67;;
43809;SDS011;29440;48.208;11.162;2024-01-06T09:43:00;5.80;;;2.78;;
43809;SDS011;29440;48.208;11.162;2024-01-06T09:45:27;7.93;;;2.85;;
43809;SDS011;29440;48.208;11.162;2024-01-06T09:47:53;4.30;;;2.20;;
43809;SDS011;29440;48.208;11.162;2024-01-06T09:50:21;4.43;;;2.17;;
43809;SDS011;29440;48.208;11.162;2024-01-06T09:52:47;6.38;;;1.92;;
43809;SDS011;29440;48.208;11.162;2024-01-06T09:57:48;17.10;;;6.25;;
43809;SDS011;29440;48.208;11.162;2024-01-06T10:00:14;25.38;;;8.18;;
43809;SDS011;29440;48.208;11.162;2024-01-06T10:02:40;15.20;;;5.00;;
43809;SDS011;29440;48.208;11.162;2024-01-06T10:05:08;6.75;;;3.47;;
43809;SDS011;29440;48.208;11.162;2024-01-06T10:07:35;7.47;;;2.95;;
43809;SDS011;29440;48.208;11.162;2024-01-06T10:10:00;6.25;;;2.70;;
43809;SDS011;29440;48.208;11.162;2024-01-06T10:12:26;11.35;;;3.10;;
43809;SDS011;29440;48.208;11.162;2024-01-06T10:14:53;6.85;;;3.92;;
43809;SDS011;29440;48.208;11.162;2024-01-06T10:17:21;7.68;;;3.45;;
43809;SDS011;29440;48.208;11.162;2024-01-06T10:19:47;8.35;;;3.47;;
43809;SDS011;29440;48.208;11.162;2024-01-06T10:22:17;8.13;;;3.42;;
43809;SDS011;29440;48.208;11.162;2024-01-06T10:24:43;12.00;;;3.55;;
43809;SDS011;29440;48.208;11.162;2024-01-06T10:27:09;5.50;;;3.10;;
43809;SDS011;29440;48.208;11.162;2024-01-06T10:29:36;6.78;;;3.05;;
43809;SDS011;29440;48.208;11.162;2024-01-06T10:32:05;9.80;;;3.63;;
43809;SDS011;29440;48.208;11.162;2024-01-06T10:34:31;7.45;;;2.60;;
43809;SDS011;29440;48.208;11.162;2024-01-06T10:36:57;5.05;;;2.60;;
43809;SDS011;29440;48.208;11.162;2024-01-06T10:39:24;4.50;;;2.63;;
43809;SDS011;29440;48.208;11.162;2024-01-06T10:41:54;7.93;;;3.15;;
43809;SDS011;29440;48.208;11.162;2024-01-06T10:44:23;8.70;;;3.00;;
43809;SDS011;29440;48.208;11.162;2024-01-06T10:46:49;5.72;;;2.47;;
43809;SDS011;29440;48.208;11.162;2024-01-06T10:49:19;6.45;;;2.83;;
43809;SDS011;29440;48.208;11.162;2024-01-06T10:51:46;6.90;;;3.20;;
43809;SDS011;29440;48.208;11.162;2024-01-06T10:54:14;6.38;;;2.65;;
43809;SDS011;29440;48.208;11.162;2024-01-06T10:56:41;6.32;;;2.83;;
43809;SDS011;29440;48.208;11.162;2024-01-06T10:59:08;6.22;;;2.70;;
43809;SDS011;29440;48.208;11.162;2024-01-06T11:01:36;7.40;;;3.03;;
43809;SDS011;29440;48.208;11.162;2024-01-06T11:04:03;10.07;;;2.92;;
43809;SDS011;29440;48.208;11.162;2024-01-06T11:06:32;7.32;;;3.35;;
43809;SDS011;29440;48.208;11.162;2024-01-06T11:09:04;7.35;;;3.00;;
43809;SDS011;29440;48.208;11.162;2024-01-06T11:11:36;6.10;;;3.20;;
43809;SDS011;29440;48.208;11.162;2024-01-06T11:16:47;7.13;;;3.25;;
43809;SDS011;29440;48.208;11.162;2024-01-06T11:19:41;10.88;;;3.10;;
43809;SDS011;29440;48.208;11.162;2024-01-06T11:24:48;10.40;;;3.60;;
43809;SDS011;29440;48.208;11.162;2024-01-06T11:27:19;9.75;;;3.95;;
43809;SDS011;29440;48.208;11.162;2024-01-06T11:29:47;6.18;;;3.50;;
43809;SDS011;29440;48.208;11.162;2024-01-06T11:34:50;6.18;;;3.20;;
43809;SDS011;29440;48.208;11.162;2024-01-06T11:37:18;11.82;;;3.95;;
43809;SDS011;29440;48.208;11.162;2024-01-06T11:39:51;9.68;;;4.75;;
43809;SDS011;29440;48.208;11.162;2024-01-06T11:42:18;7.03;;;3.83;;
43809;SDS011;29440;48.208;11.162;2024-01-06T11:44:44;5.47;;;3.30;;
43809;SDS011;29440;48.208;11.162;2024-01-06T11:47:14;11.27;;;3.20;;
43809;SDS011;29440;48.208;11.162;2024-01-06T11:49:43;5.88;;;2.92;;
43809;SDS011;29440;48.208;11.162;2024-01-06T11:52:11;6.13;;;3.38;;
43809;SDS011;29440;48.208;11.162;2024-01-06T11:54:37;9.27;;;3.88;;
43809;SDS011;29440;48.208;11.162;2024-01-06T11:57:03;7.47;;;4.88;;
43809;SDS011;29440;48.208;11.162;2024-01-06T11:59:29;22.00;;;12.18;;
43809;SDS011;29440;48.208;11.162;2024-01-06T12:01:55;22.60;;;11.52;;
43809;SDS011;29440;48.208;11.162;2024-01-06T12:04:20;69.68;;;25.25;;
43809;SDS011;29440;48.208;11.162;2024-01-06T12:06:47;371.08;;;98.15;;
43809;SDS011;29440;48.208;11.162;2024-01-06T12:09:12;137.35;;;54.47;;
43809;SDS011;29440;48.208;11.162;2024-01-06T12:11:40;27.02;;;14.45;;
43809;SDS011;29440;48.208;11.162;2024-01-06T12:14:06;11.70;;;5.18;;
43809;SDS011;29440;48.208;11.162;2024-01-06T12:16:31;10.20;;;4.20;;
43809;SDS011;29440;48.208;11.162;2024-01-06T12:18:58;7.97;;;4.20;;
43809;SDS011;29440;48.208;11.162;2024-01-06T12:21:26;6.97;;;3.35;;
43809;SDS011;29440;48.208;11.162;2024-01-06T12:23:52;6.82;;;3.08;;
43809;SDS011;29440;48.208;11.162;2024-01-06T12:26:18;6.22;;;3.42;;
43809;SDS011;29440;48.208;11.162;2024-01-06T12:28:48;6.15;;;3.55;;
43809;SDS011;29440;48.208;11.162;2024-01-06T12:31:15;4.70;;;3.40;;
43809;SDS011;29440;48.208;11.162;2024-01-06T12:33:41;6.18;;;3.85;;
43809;SDS011;29440;48.208;11.162;2024-01-06T12:36:07;10.88;;;3.95;;
43809;SDS011;29440;48.208;11.162;2024-01-06T12:38:34;8.35;;;4.07;;
43809;SDS011;29440;48.208;11.162;2024-01-06T12:41:00;5.82;;;3.55;;
43809;SDS011;29440;48.208;11.162;2024-01-06T12:43:25;12.00;;;4.18;;
43809;SDS011;29440;48.208;11.162;2024-01-06T12:45:53;7.00;;;4.45;;
43809;SDS011;29440;48.208;11.162;2024-01-06T12:48:19;7.53;;;3.72;;
43809;SDS011;29440;48.208;11.162;2024-01-06T12:50:44;7.25;;;3.83;;
43809;SDS011;29440;48.208;11.162;2024-01-06T12:53:10;6.72;;;3.80;;
43809;SDS011;29440;48.208;11.162;2024-01-06T12:55:40;9.93;;;3.47;;
43809;SDS011;29440;48.208;11.162;2024-01-06T12:58:06;7.18;;;3.33;;
43809;SDS011;29440;48.208;11.162;2024-01-06T13:00:33;6.47;;;3.72;;
43809;SDS011;29440;48.208;11.162;2024-01-06T13:02:59;8.38;;;3.90;;
43809;SDS011;29440;48.208;11.162;2024-01-06T13:05:24;9.30;;;4.40;;
43809;SDS011;29440;48.208;11.162;2024-01-06T13:07:50;48.97;;;22.17;;
43809;SDS011;29440;48.208;11.162;2024-01-06T13:10:16;153.50;;;56.25;;
43809;SDS011;29440;48.208;11.162;2024-01-06T13:12:42;124.28;;;46.30;;
43809;SDS011;29440;48.208;11.162;2024-01-06T13:15:07;42.97;;;20.67;;
43809;SDS011;29440;48.208;11.162;2024-01-06T13:17:36;32.35;;;16.98;;
43809;SDS011;29440;48.208;11.162;2024-01-06T13:20:03;19.73;;;12.15;;
43809;SDS011;29440;48.208;11.162;2024-01-06T13:22:29;41.95;;;17.33;;
43809;SDS011;29440;48.208;11.162;2024-01-06T13:24:55;36.58;;;20.58;;
43809;SDS011;29440;48.208;11.162;2024-01-06T13:27:21;9.73;;;6.05;;
43809;SDS011;29440;48.208;11.162;2024-01-06T13:29:47;6.07;;;4.10;;
43809;SDS011;29440;48.208;11.162;2024-01-06T13:32:13;5.68;;;2.95;;
43809;SDS011;29440;48.208;11.162;2024-01-06T13:34:40;4.43;;;2.67;;
43809;SDS011;29440;48.208;11.162;2024-01-06T13:37:06;9.27;;;2.60;;
43809;SDS011;29440;48.208;11.162;2024-01-06T13:39:32;3.72;;;2.47;;
43809;SDS011;29440;48.208;11.162;2024-01-06T13:41:57;6.10;;;2.92;;
43809;SDS011;29440;48.208;11.162;2024-01-06T13:44:24;4.53;;;2.55;;
43809;SDS011;29440;48.208;11.162;2024-01-06T13:46:50;5.97;;;3.25;;
43809;SDS011;29440;48.208;11.162;2024-01-06T13:49:16;8.82;;;5.47;;
43809;SDS011;29440;48.208;11.162;2024-01-06T13:51:42;7.50;;;4.00;;
43809;SDS011;29440;48.208;11.162;2024-01-06T13:54:08;7.72;;;3.83;;
43809;SDS011;29440;48.208;11.162;2024-01-06T13:56:34;12.95;;;7.50;;
43809;SDS011;29440;48.208;11.162;2024-01-06T13:59:00;14.70;;;7.50;;
43809;SDS011;29440;48.208;11.162;2024-01-06T14:01:26;9.40;;;4.97;;
43809;SDS011;29440;48.208;11.162;2024-01-06T14:03:52;12.57;;;7.13;;
43809;SDS011;29440;48.208;11.162;2024-01-06T14:06:23;49.20;;;23.75;;
43809;SDS011;29440;48.208;11.162;2024-01-06T14:09:04;11.32;;;6.88;;
43809;SDS011;29440;48.208;11.162;2024-01-06T14:11:30;33.85;;;17.17;;
43809;SDS011;29440;48.208;11.162;2024-01-06T14:13:59;9.98;;;5.85;;
43809;SDS011;29440;48.208;11.162;2024-01-06T14:16:25;9.32;;;3.78;;
43809;SDS011;29440;48.208;11.162;2024-01-06T14:18:51;6.70;;;3.58;;
43809;SDS011;29440;48.208;11.162;2024-01-06T14:21:18;13.45;;;7.25;;
43809;SDS011;29440;48.208;11.162;2024-01-06T14:23:47;11.77;;;6.78;;
43809;SDS011;29440;48.208;11.162;2024-01-06T14:26:16;8.05;;;4.88;;
43809;SDS011;29440;48.208;11.162;2024-01-06T14:28:44;11.48;;;5.07;;
43809;SDS011;29440;48.208;11.162;2024-01-06T14:31:11;7.47;;;3.75;;
43809;SDS011;29440;48.208;11.162;2024-01-06T14:33:36;7.75;;;3.90;;